LFSB METAR :   2017/09/24 17:00 LFSB 241700Z 01005KT 350V070 9999 FEW046 19/10 Q1020 NOSIG

TAF  2017/09/24 18:22 TAF LFSB 241700Z 2418/2518 VRB02KT CAVOK BECMG 2422/2501 4000 BR NSC TEMPO 2502/2507 0800 BCFG BKN003 PROB40 TEMPO 2503/2506 0300 FG VV/// PROB40 TEMPO 2507/2509 6000 NSW BKN006 BECMG 2509/2512 CAVOK